Leviticus — WDC2712 — position and weather

sailwx.info

Track history (hours):
 
Tides and Currents Weather Stations Pressure Air Temp Water Temp Dewpoint Dewpoint Depression Visibility Wind Speed Wind Dir Waves Ship Positions

Leviticus

Owner: Kirby Inland Marine, LP, Houston, TX. More information available from US FCC via Universal Licensing System and Coast Guard Vessel Documentation Center.

Last reported at 2015-Jun-28 16:21 UTC. Time now 2015-Jul-03 07:52 UTC.
Position N 39°09' W 084°45'.

Length 12 m.

Type: Other ship. MMSI: 366996690.

Date/timePositionNaut miles runAvg speedWind from/ knotsBaromVisibWave heightAir tempDewpointWater temp
2015-Jun-28 16:21N 39°09' W 084°45'5 5.6
2015-Jun-28 15:26N 39°06' W 084°40'5 5.6
2015-Jun-28 14:33N 39°06' W 084°33'5 5.3
2015-Jun-28 13:33N 39°07' W 084°27'5 5.2
2015-Jun-28 12:33N 39°03' W 084°23'5 5.4
2015-Jun-28 11:32N 38°59' W 084°18'6 6.0
2015-Jun-28 10:33N 38°54' W 084°14'6 5.8
2015-Jun-28 09:32N 38°48' W 084°12'3 2.4
2015-Jun-28 08:26N 38°48' W 084°09'  
Track history (hours):
 
Tides and Currents Weather Stations Pressure Air Temp Water Temp Dewpoint Dewpoint Depression Visibility Wind Speed Wind Dir Waves Ship Positions

Leviticus

Owner: Kirby Inland Marine, LP, Houston, TX. More information available from US FCC via Universal Licensing System and Coast Guard Vessel Documentation Center.

Last reported at 2015-Jun-28 16:21 UTC. Time now 2015-Jul-03 07:52 UTC.
Position N 39°09' W 084°45'.

Length 12 m.

Type: Other ship. MMSI: 366996690.

Date/timePositionNaut miles runAvg speedWind from/ knotsBaromVisibWave heightAir tempDewpointWater temp
2015-Jun-28 16:21N 39°09' W 084°45'5 5.6
2015-Jun-28 15:26N 39°06' W 084°40'5 5.6
2015-Jun-28 14:33N 39°06' W 084°33'5 5.3
2015-Jun-28 13:33N 39°07' W 084°27'5 5.2
2015-Jun-28 12:33N 39°03' W 084°23'5 5.4
2015-Jun-28 11:32N 38°59' W 084°18'6 6.0
2015-Jun-28 10:33N 38°54' W 084°14'6 5.8
2015-Jun-28 09:32N 38°48' W 084°12'3 2.4
2015-Jun-28 08:26N 38°48' W 084°09'  

Dump ship's entire track history